sensor_id;sensor_type;location;lat;lon;timestamp;P1;durP1;ratioP1;P2;durP2;ratioP2
46158;SDS011;31888;44.512;26.104;2022-12-18T00:00:10;33.17;;;16.67;;
46158;SDS011;31888;44.512;26.104;2022-12-18T00:02:35;35.40;;;16.80;;
46158;SDS011;31888;44.512;26.104;2022-12-18T00:04:59;32.03;;;16.77;;
46158;SDS011;31888;44.512;26.104;2022-12-18T00:07:25;32.97;;;17.63;;
46158;SDS011;31888;44.512;26.104;2022-12-18T00:09:49;33.55;;;16.65;;
46158;SDS011;31888;44.512;26.104;2022-12-18T00:12:13;36.63;;;17.80;;
46158;SDS011;31888;44.512;26.104;2022-12-18T00:14:43;35.85;;;18.83;;
46158;SDS011;31888;44.512;26.104;2022-12-18T00:17:08;38.15;;;18.08;;
46158;SDS011;31888;44.512;26.104;2022-12-18T00:19:33;34.55;;;17.85;;
46158;SDS011;31888;44.512;26.104;2022-12-18T00:21:57;36.13;;;18.38;;
46158;SDS011;31888;44.512;26.104;2022-12-18T00:24:22;33.63;;;17.20;;
46158;SDS011;31888;44.512;26.104;2022-12-18T00:26:46;35.97;;;18.30;;
46158;SDS011;31888;44.512;26.104;2022-12-18T00:29:12;35.80;;;17.95;;
46158;SDS011;31888;44.512;26.104;2022-12-18T00:31:38;36.80;;;17.73;;
46158;SDS011;31888;44.512;26.104;2022-12-18T00:34:04;42.13;;;19.20;;
46158;SDS011;31888;44.512;26.104;2022-12-18T00:36:30;39.45;;;19.50;;
46158;SDS011;31888;44.512;26.104;2022-12-18T00:38:56;38.28;;;19.80;;
46158;SDS011;31888;44.512;26.104;2022-12-18T00:41:22;39.38;;;18.48;;
46158;SDS011;31888;44.512;26.104;2022-12-18T00:44:08;38.20;;;19.05;;
46158;SDS011;31888;44.512;26.104;2022-12-18T00:46:34;39.88;;;19.13;;
46158;SDS011;31888;44.512;26.104;2022-12-18T00:48:58;40.85;;;19.05;;
46158;SDS011;31888;44.512;26.104;2022-12-18T00:51:24;43.97;;;20.65;;
46158;SDS011;31888;44.512;26.104;2022-12-18T00:53:50;42.38;;;18.95;;
46158;SDS011;31888;44.512;26.104;2022-12-18T00:56:14;42.05;;;20.48;;
46158;SDS011;31888;44.512;26.104;2022-12-18T00:58:41;39.92;;;19.63;;
46158;SDS011;31888;44.512;26.104;2022-12-18T01:01:05;41.63;;;20.50;;
46158;SDS011;31888;44.512;26.104;2022-12-18T01:03:30;39.38;;;19.70;;
46158;SDS011;31888;44.512;26.104;2022-12-18T01:05:55;43.42;;;21.15;;
46158;SDS011;31888;44.512;26.104;2022-12-18T01:08:21;38.50;;;20.63;;
46158;SDS011;31888;44.512;26.104;2022-12-18T01:10:45;39.50;;;19.60;;
46158;SDS011;31888;44.512;26.104;2022-12-18T01:13:10;42.90;;;20.98;;
46158;SDS011;31888;44.512;26.104;2022-12-18T01:15:34;42.97;;;19.52;;
46158;SDS011;31888;44.512;26.104;2022-12-18T01:17:59;40.90;;;20.88;;
46158;SDS011;31888;44.512;26.104;2022-12-18T01:20:23;42.47;;;21.17;;
46158;SDS011;31888;44.512;26.104;2022-12-18T01:22:48;48.85;;;20.50;;
46158;SDS011;31888;44.512;26.104;2022-12-18T01:25:14;41.05;;;20.00;;
46158;SDS011;31888;44.512;26.104;2022-12-18T01:27:38;44.97;;;20.42;;
46158;SDS011;31888;44.512;26.104;2022-12-18T01:30:03;44.75;;;20.92;;
46158;SDS011;31888;44.512;26.104;2022-12-18T01:32:29;44.50;;;21.13;;
46158;SDS011;31888;44.512;26.104;2022-12-18T01:34:54;40.95;;;20.48;;
46158;SDS011;31888;44.512;26.104;2022-12-18T01:37:18;47.10;;;21.60;;
46158;SDS011;31888;44.512;26.104;2022-12-18T01:39:44;45.22;;;20.80;;
46158;SDS011;31888;44.512;26.104;2022-12-18T01:42:10;47.70;;;22.17;;
46158;SDS011;31888;44.512;26.104;2022-12-18T01:47:34;52.85;;;23.05;;
46158;SDS011;31888;44.512;26.104;2022-12-18T01:50:03;51.67;;;22.63;;
46158;SDS011;31888;44.512;26.104;2022-12-18T01:52:31;52.85;;;21.98;;
46158;SDS011;31888;44.512;26.104;2022-12-18T01:54:57;49.35;;;21.85;;
46158;SDS011;31888;44.512;26.104;2022-12-18T01:57:26;49.28;;;21.42;;
46158;SDS011;31888;44.512;26.104;2022-12-18T01:59:52;49.80;;;22.27;;
46158;SDS011;31888;44.512;26.104;2022-12-18T02:02:18;51.00;;;22.80;;
46158;SDS011;31888;44.512;26.104;2022-12-18T02:04:43;54.72;;;24.55;;
46158;SDS011;31888;44.512;26.104;2022-12-18T02:07:13;52.35;;;22.00;;
46158;SDS011;31888;44.512;26.104;2022-12-18T02:09:46;56.70;;;24.13;;
46158;SDS011;31888;44.512;26.104;2022-12-18T02:12:16;60.20;;;24.13;;
46158;SDS011;31888;44.512;26.104;2022-12-18T02:14:45;52.58;;;22.45;;
46158;SDS011;31888;44.512;26.104;2022-12-18T02:17:20;60.53;;;23.70;;
46158;SDS011;31888;44.512;26.104;2022-12-18T02:19:54;64.13;;;24.25;;
46158;SDS011;31888;44.512;26.104;2022-12-18T02:22:29;68.90;;;25.42;;
46158;SDS011;31888;44.512;26.104;2022-12-18T02:25:11;71.78;;;26.73;;
46158;SDS011;31888;44.512;26.104;2022-12-18T02:27:45;73.50;;;27.35;;
46158;SDS011;31888;44.512;26.104;2022-12-18T02:30:12;61.78;;;25.35;;
46158;SDS011;31888;44.512;26.104;2022-12-18T02:32:39;61.40;;;25.83;;
46158;SDS011;31888;44.512;26.104;2022-12-18T02:35:06;72.35;;;29.48;;
46158;SDS011;31888;44.512;26.104;2022-12-18T02:37:36;67.05;;;26.27;;
46158;SDS011;31888;44.512;26.104;2022-12-18T02:40:04;65.57;;;27.00;;
46158;SDS011;31888;44.512;26.104;2022-12-18T02:42:31;69.35;;;28.65;;
46158;SDS011;31888;44.512;26.104;2022-12-18T02:45:01;68.88;;;27.20;;
46158;SDS011;31888;44.512;26.104;2022-12-18T02:47:27;65.40;;;28.83;;
46158;SDS011;31888;44.512;26.104;2022-12-18T02:49:58;64.38;;;27.35;;
46158;SDS011;31888;44.512;26.104;2022-12-18T02:52:31;61.30;;;26.80;;
46158;SDS011;31888;44.512;26.104;2022-12-18T02:55:19;65.93;;;27.10;;
46158;SDS011;31888;44.512;26.104;2022-12-18T02:57:58;72.85;;;28.00;;
46158;SDS011;31888;44.512;26.104;2022-12-18T03:00:33;70.28;;;28.52;;
46158;SDS011;31888;44.512;26.104;2022-12-18T03:03:03;73.07;;;28.50;;
46158;SDS011;31888;44.512;26.104;2022-12-18T03:08:01;69.28;;;26.88;;
46158;SDS011;31888;44.512;26.104;2022-12-18T03:10:34;66.85;;;27.10;;
46158;SDS011;31888;44.512;26.104;2022-12-18T03:13:04;75.13;;;28.92;;
46158;SDS011;31888;44.512;26.104;2022-12-18T03:15:34;71.85;;;29.13;;
46158;SDS011;31888;44.512;26.104;2022-12-18T03:18:05;70.25;;;28.08;;
46158;SDS011;31888;44.512;26.104;2022-12-18T03:20:34;75.82;;;30.13;;
46158;SDS011;31888;44.512;26.104;2022-12-18T03:23:02;72.57;;;30.13;;
46158;SDS011;31888;44.512;26.104;2022-12-18T03:25:30;77.80;;;30.73;;
46158;SDS011;31888;44.512;26.104;2022-12-18T03:27:56;77.07;;;31.67;;
46158;SDS011;31888;44.512;26.104;2022-12-18T03:30:25;80.65;;;31.75;;
46158;SDS011;31888;44.512;26.104;2022-12-18T03:32:56;75.32;;;29.83;;
46158;SDS011;31888;44.512;26.104;2022-12-18T03:35:31;76.35;;;30.73;;
46158;SDS011;31888;44.512;26.104;2022-12-18T03:38:00;73.15;;;30.85;;
46158;SDS011;31888;44.512;26.104;2022-12-18T03:40:26;78.13;;;30.25;;
46158;SDS011;31888;44.512;26.104;2022-12-18T03:42:58;70.53;;;29.63;;
46158;SDS011;31888;44.512;26.104;2022-12-18T03:45:30;80.43;;;32.13;;
46158;SDS011;31888;44.512;26.104;2022-12-18T03:48:02;71.03;;;30.67;;
46158;SDS011;31888;44.512;26.104;2022-12-18T03:50:37;77.53;;;30.63;;
46158;SDS011;31888;44.512;26.104;2022-12-18T03:53:11;76.20;;;30.30;;
46158;SDS011;31888;44.512;26.104;2022-12-18T03:55:44;73.45;;;30.83;;
46158;SDS011;31888;44.512;26.104;2022-12-18T03:58:11;73.28;;;30.38;;
46158;SDS011;31888;44.512;26.104;2022-12-18T04:00:50;68.80;;;31.10;;
46158;SDS011;31888;44.512;26.104;2022-12-18T04:03:19;73.20;;;31.50;;
46158;SDS011;31888;44.512;26.104;2022-12-18T04:08:15;72.55;;;28.13;;
46158;SDS011;31888;44.512;26.104;2022-12-18T04:10:48;68.30;;;29.70;;
46158;SDS011;31888;44.512;26.104;2022-12-18T04:13:21;72.82;;;29.80;;
46158;SDS011;31888;44.512;26.104;2022-12-18T04:15:46;72.93;;;30.67;;
46158;SDS011;31888;44.512;26.104;2022-12-18T04:18:12;66.97;;;28.70;;
46158;SDS011;31888;44.512;26.104;2022-12-18T04:20:40;71.85;;;29.38;;
46158;SDS011;31888;44.512;26.104;2022-12-18T04:23:06;66.85;;;27.80;;
46158;SDS011;31888;44.512;26.104;2022-12-18T04:25:32;71.78;;;29.92;;
46158;SDS011;31888;44.512;26.104;2022-12-18T04:28:02;68.82;;;29.80;;
46158;SDS011;31888;44.512;26.104;2022-12-18T04:30:29;67.22;;;28.40;;
46158;SDS011;31888;44.512;26.104;2022-12-18T04:32:54;70.85;;;28.90;;
46158;SDS011;31888;44.512;26.104;2022-12-18T04:35:19;61.55;;;29.08;;
46158;SDS011;31888;44.512;26.104;2022-12-18T04:37:46;62.13;;;26.80;;
46158;SDS011;31888;44.512;26.104;2022-12-18T04:40:11;67.32;;;27.83;;
46158;SDS011;31888;44.512;26.104;2022-12-18T04:42:40;67.32;;;28.48;;
46158;SDS011;31888;44.512;26.104;2022-12-18T04:45:05;62.28;;;26.90;;
46158;SDS011;31888;44.512;26.104;2022-12-18T04:47:30;64.03;;;26.60;;
46158;SDS011;31888;44.512;26.104;2022-12-18T04:49:55;64.88;;;28.20;;
46158;SDS011;31888;44.512;26.104;2022-12-18T04:52:19;63.85;;;27.83;;
46158;SDS011;31888;44.512;26.104;2022-12-18T04:54:48;64.90;;;25.80;;
46158;SDS011;31888;44.512;26.104;2022-12-18T04:57:13;58.35;;;26.50;;
46158;SDS011;31888;44.512;26.104;2022-12-18T04:59:37;73.05;;;28.20;;
46158;SDS011;31888;44.512;26.104;2022-12-18T05:02:02;67.95;;;28.48;;
46158;SDS011;31888;44.512;26.104;2022-12-18T05:04:27;71.55;;;28.85;;
46158;SDS011;31888;44.512;26.104;2022-12-18T05:06:51;73.80;;;28.73;;
46158;SDS011;31888;44.512;26.104;2022-12-18T05:09:16;77.60;;;27.75;;
46158;SDS011;31888;44.512;26.104;2022-12-18T05:11:42;74.75;;;28.55;;
46158;SDS011;31888;44.512;26.104;2022-12-18T05:14:07;71.07;;;27.08;;
46158;SDS011;31888;44.512;26.104;2022-12-18T05:16:32;71.97;;;27.23;;
46158;SDS011;31888;44.512;26.104;2022-12-18T05:18:56;61.92;;;27.15;;
46158;SDS011;31888;44.512;26.104;2022-12-18T05:21:21;73.80;;;30.75;;
46158;SDS011;31888;44.512;26.104;2022-12-18T05:23:45;61.55;;;25.33;;
46158;SDS011;31888;44.512;26.104;2022-12-18T05:26:10;68.82;;;27.45;;
46158;SDS011;31888;44.512;26.104;2022-12-18T05:28:40;68.35;;;28.55;;
46158;SDS011;31888;44.512;26.104;2022-12-18T05:31:05;59.05;;;27.77;;
46158;SDS011;31888;44.512;26.104;2022-12-18T05:33:30;64.55;;;27.40;;
46158;SDS011;31888;44.512;26.104;2022-12-18T05:35:56;55.53;;;25.75;;
46158;SDS011;31888;44.512;26.104;2022-12-18T05:38:23;58.30;;;23.98;;
46158;SDS011;31888;44.512;26.104;2022-12-18T05:40:49;53.85;;;25.27;;
46158;SDS011;31888;44.512;26.104;2022-12-18T05:43:14;47.83;;;22.10;;
46158;SDS011;31888;44.512;26.104;2022-12-18T05:45:44;54.88;;;26.52;;
46158;SDS011;31888;44.512;26.104;2022-12-18T05:48:09;60.28;;;27.08;;
46158;SDS011;31888;44.512;26.104;2022-12-18T05:50:34;54.60;;;26.17;;
46158;SDS011;31888;44.512;26.104;2022-12-18T05:52:58;54.03;;;25.60;;
46158;SDS011;31888;44.512;26.104;2022-12-18T05:55:23;51.88;;;23.73;;
46158;SDS011;31888;44.512;26.104;2022-12-18T05:57:48;59.08;;;28.70;;
46158;SDS011;31888;44.512;26.104;2022-12-18T06:00:13;49.28;;;24.58;;
46158;SDS011;31888;44.512;26.104;2022-12-18T06:02:40;57.40;;;22.98;;
46158;SDS011;31888;44.512;26.104;2022-12-18T06:05:05;52.22;;;25.00;;
46158;SDS011;31888;44.512;26.104;2022-12-18T06:07:31;45.97;;;22.13;;
46158;SDS011;31888;44.512;26.104;2022-12-18T06:09:56;50.95;;;24.35;;
46158;SDS011;31888;44.512;26.104;2022-12-18T06:12:21;56.05;;;25.10;;
46158;SDS011;31888;44.512;26.104;2022-12-18T06:14:45;51.92;;;26.05;;
46158;SDS011;31888;44.512;26.104;2022-12-18T06:17:09;58.40;;;25.83;;
46158;SDS011;31888;44.512;26.104;2022-12-18T06:19:35;40.38;;;17.15;;
46158;SDS011;31888;44.512;26.104;2022-12-18T06:22:00;38.88;;;18.17;;
46158;SDS011;31888;44.512;26.104;2022-12-18T06:24:24;51.67;;;24.42;;
46158;SDS011;31888;44.512;26.104;2022-12-18T06:26:49;53.17;;;24.98;;
46158;SDS011;31888;44.512;26.104;2022-12-18T06:29:13;45.50;;;21.05;;
46158;SDS011;31888;44.512;26.104;2022-12-18T06:31:39;47.33;;;22.70;;
46158;SDS011;31888;44.512;26.104;2022-12-18T06:34:03;51.67;;;24.90;;
46158;SDS011;31888;44.512;26.104;2022-12-18T06:36:30;50.10;;;21.35;;
46158;SDS011;31888;44.512;26.104;2022-12-18T06:38:55;53.08;;;24.05;;
46158;SDS011;31888;44.512;26.104;2022-12-18T06:41:20;53.22;;;23.40;;
46158;SDS011;31888;44.512;26.104;2022-12-18T06:43:45;53.15;;;21.95;;
46158;SDS011;31888;44.512;26.104;2022-12-18T06:46:11;56.72;;;27.73;;
46158;SDS011;31888;44.512;26.104;2022-12-18T06:48:39;54.00;;;24.90;;
46158;SDS011;31888;44.512;26.104;2022-12-18T06:51:04;53.33;;;21.95;;
46158;SDS011;31888;44.512;26.104;2022-12-18T06:53:31;56.95;;;26.00;;
46158;SDS011;31888;44.512;26.104;2022-12-18T06:55:59;56.40;;;24.23;;
46158;SDS011;31888;44.512;26.104;2022-12-18T06:58:31;54.33;;;25.95;;
46158;SDS011;31888;44.512;26.104;2022-12-18T07:00:59;46.97;;;20.85;;
46158;SDS011;31888;44.512;26.104;2022-12-18T07:03:25;68.10;;;29.45;;
46158;SDS011;31888;44.512;26.104;2022-12-18T07:05:49;48.42;;;19.63;;
46158;SDS011;31888;44.512;26.104;2022-12-18T07:08:15;58.03;;;24.92;;
46158;SDS011;31888;44.512;26.104;2022-12-18T07:10:44;57.45;;;25.33;;
46158;SDS011;31888;44.512;26.104;2022-12-18T07:13:18;50.95;;;19.00;;
46158;SDS011;31888;44.512;26.104;2022-12-18T07:15:43;55.38;;;25.33;;
46158;SDS011;31888;44.512;26.104;2022-12-18T07:18:08;59.05;;;26.20;;
46158;SDS011;31888;44.512;26.104;2022-12-18T07:20:32;56.25;;;25.75;;
46158;SDS011;31888;44.512;26.104;2022-12-18T07:22:57;55.25;;;24.88;;
46158;SDS011;31888;44.512;26.104;2022-12-18T07:25:22;49.15;;;21.75;;
46158;SDS011;31888;44.512;26.104;2022-12-18T07:27:48;54.05;;;20.92;;
46158;SDS011;31888;44.512;26.104;2022-12-18T07:30:13;61.40;;;25.35;;
46158;SDS011;31888;44.512;26.104;2022-12-18T07:32:39;51.53;;;22.27;;
46158;SDS011;31888;44.512;26.104;2022-12-18T07:35:03;63.75;;;26.88;;
46158;SDS011;31888;44.512;26.104;2022-12-18T07:37:28;51.55;;;22.35;;
46158;SDS011;31888;44.512;26.104;2022-12-18T07:39:53;60.92;;;26.83;;
46158;SDS011;31888;44.512;26.104;2022-12-18T07:42:17;63.35;;;27.40;;
46158;SDS011;31888;44.512;26.104;2022-12-18T07:44:55;64.07;;;26.75;;
46158;SDS011;31888;44.512;26.104;2022-12-18T07:47:20;64.50;;;29.85;;
46158;SDS011;31888;44.512;26.104;2022-12-18T07:49:44;58.28;;;25.20;;
46158;SDS011;31888;44.512;26.104;2022-12-18T07:52:08;52.22;;;21.10;;
46158;SDS011;31888;44.512;26.104;2022-12-18T07:54:34;42.50;;;17.80;;
46158;SDS011;31888;44.512;26.104;2022-12-18T07:56:59;49.60;;;20.95;;
46158;SDS011;31888;44.512;26.104;2022-12-18T07:59:25;54.75;;;25.23;;
46158;SDS011;31888;44.512;26.104;2022-12-18T08:01:51;60.55;;;26.55;;
46158;SDS011;31888;44.512;26.104;2022-12-18T08:04:16;58.45;;;25.38;;
46158;SDS011;31888;44.512;26.104;2022-12-18T08:06:40;60.72;;;25.05;;
46158;SDS011;31888;44.512;26.104;2022-12-18T08:09:09;57.90;;;24.38;;
46158;SDS011;31888;44.512;26.104;2022-12-18T08:11:34;51.15;;;23.80;;
46158;SDS011;31888;44.512;26.104;2022-12-18T08:13:58;52.75;;;23.30;;
46158;SDS011;31888;44.512;26.104;2022-12-18T08:16:22;44.17;;;19.17;;
46158;SDS011;31888;44.512;26.104;2022-12-18T08:18:48;39.72;;;18.08;;
46158;SDS011;31888;44.512;26.104;2022-12-18T08:21:16;42.15;;;18.73;;
46158;SDS011;31888;44.512;26.104;2022-12-18T08:23:43;40.17;;;18.08;;
46158;SDS011;31888;44.512;26.104;2022-12-18T08:26:08;27.75;;;13.10;;
46158;SDS011;31888;44.512;26.104;2022-12-18T08:28:33;32.70;;;16.13;;
46158;SDS011;31888;44.512;26.104;2022-12-18T08:30:58;38.45;;;16.13;;
46158;SDS011;31888;44.512;26.104;2022-12-18T08:33:23;30.73;;;13.90;;
46158;SDS011;31888;44.512;26.104;2022-12-18T08:35:49;38.20;;;18.45;;
46158;SDS011;31888;44.512;26.104;2022-12-18T08:38:14;38.13;;;16.17;;
46158;SDS011;31888;44.512;26.104;2022-12-18T08:40:38;37.15;;;16.65;;
46158;SDS011;31888;44.512;26.104;2022-12-18T08:43:03;37.53;;;15.95;;
46158;SDS011;31888;44.512;26.104;2022-12-18T08:45:45;41.95;;;18.17;;
46158;SDS011;31888;44.512;26.104;2022-12-18T08:48:09;37.95;;;18.88;;
46158;SDS011;31888;44.512;26.104;2022-12-18T08:50:39;42.05;;;18.48;;
46158;SDS011;31888;44.512;26.104;2022-12-18T08:53:05;39.15;;;16.70;;
46158;SDS011;31888;44.512;26.104;2022-12-18T08:55:29;35.60;;;16.30;;
46158;SDS011;31888;44.512;26.104;2022-12-18T08:57:54;36.53;;;18.88;;
46158;SDS011;31888;44.512;26.104;2022-12-18T09:00:18;37.92;;;15.52;;
46158;SDS011;31888;44.512;26.104;2022-12-18T09:02:43;37.97;;;18.15;;
46158;SDS011;31888;44.512;26.104;2022-12-18T09:05:07;34.25;;;16.38;;
46158;SDS011;31888;44.512;26.104;2022-12-18T09:07:32;42.35;;;16.98;;
46158;SDS011;31888;44.512;26.104;2022-12-18T09:09:58;37.80;;;17.73;;
46158;SDS011;31888;44.512;26.104;2022-12-18T09:12:24;35.47;;;17.75;;
46158;SDS011;31888;44.512;26.104;2022-12-18T09:14:51;35.00;;;15.20;;
46158;SDS011;31888;44.512;26.104;2022-12-18T09:17:16;42.78;;;18.85;;
46158;SDS011;31888;44.512;26.104;2022-12-18T09:19:40;38.10;;;19.02;;
46158;SDS011;31888;44.512;26.104;2022-12-18T09:22:05;31.77;;;12.57;;
46158;SDS011;31888;44.512;26.104;2022-12-18T09:24:30;37.50;;;16.42;;
46158;SDS011;31888;44.512;26.104;2022-12-18T09:26:56;38.88;;;18.63;;
46158;SDS011;31888;44.512;26.104;2022-12-18T09:29:20;33.80;;;13.50;;
46158;SDS011;31888;44.512;26.104;2022-12-18T09:31:45;37.88;;;18.05;;
46158;SDS011;31888;44.512;26.104;2022-12-18T09:34:10;30.85;;;14.45;;
46158;SDS011;31888;44.512;26.104;2022-12-18T09:36:34;35.70;;;15.50;;
46158;SDS011;31888;44.512;26.104;2022-12-18T09:38:59;26.20;;;10.15;;
46158;SDS011;31888;44.512;26.104;2022-12-18T09:41:35;33.63;;;16.10;;
46158;SDS011;31888;44.512;26.104;2022-12-18T09:44:11;36.15;;;15.90;;
46158;SDS011;31888;44.512;26.104;2022-12-18T09:46:44;39.60;;;17.67;;
46158;SDS011;31888;44.512;26.104;2022-12-18T09:49:12;44.47;;;19.30;;
46158;SDS011;31888;44.512;26.104;2022-12-18T09:51:42;49.53;;;21.35;;
46158;SDS011;31888;44.512;26.104;2022-12-18T09:54:11;47.65;;;20.73;;
46158;SDS011;31888;44.512;26.104;2022-12-18T09:56:40;58.40;;;25.75;;
46158;SDS011;31888;44.512;26.104;2022-12-18T09:59:09;63.38;;;26.42;;
46158;SDS011;31888;44.512;26.104;2022-12-18T10:01:42;49.10;;;20.25;;
46158;SDS011;31888;44.512;26.104;2022-12-18T10:04:08;48.60;;;18.13;;
46158;SDS011;31888;44.512;26.104;2022-12-18T10:06:35;61.88;;;24.30;;
46158;SDS011;31888;44.512;26.104;2022-12-18T10:09:05;65.03;;;25.50;;
46158;SDS011;31888;44.512;26.104;2022-12-18T10:11:38;45.85;;;20.67;;
46158;SDS011;31888;44.512;26.104;2022-12-18T10:14:14;59.60;;;24.23;;
46158;SDS011;31888;44.512;26.104;2022-12-18T10:16:46;48.80;;;21.08;;
46158;SDS011;31888;44.512;26.104;2022-12-18T10:19:22;39.13;;;14.15;;
46158;SDS011;31888;44.512;26.104;2022-12-18T10:21:58;48.20;;;20.70;;
46158;SDS011;31888;44.512;26.104;2022-12-18T10:24:37;65.03;;;25.80;;
46158;SDS011;31888;44.512;26.104;2022-12-18T10:27:11;69.90;;;27.23;;
46158;SDS011;31888;44.512;26.104;2022-12-18T10:29:38;59.35;;;25.10;;
46158;SDS011;31888;44.512;26.104;2022-12-18T10:32:04;62.28;;;26.67;;
46158;SDS011;31888;44.512;26.104;2022-12-18T10:34:29;59.58;;;24.48;;
46158;SDS011;31888;44.512;26.104;2022-12-18T10:36:53;64.03;;;25.90;;
46158;SDS011;31888;44.512;26.104;2022-12-18T10:39:19;66.28;;;27.60;;
46158;SDS011;31888;44.512;26.104;2022-12-18T10:41:45;58.60;;;23.42;;
46158;SDS011;31888;44.512;26.104;2022-12-18T10:44:11;74.75;;;30.67;;
46158;SDS011;31888;44.512;26.104;2022-12-18T10:46:39;66.93;;;26.90;;
46158;SDS011;31888;44.512;26.104;2022-12-18T10:49:17;60.80;;;24.92;;
46158;SDS011;31888;44.512;26.104;2022-12-18T10:51:43;56.53;;;22.13;;
46158;SDS011;31888;44.512;26.104;2022-12-18T10:54:13;73.55;;;25.00;;
46158;SDS011;31888;44.512;26.104;2022-12-18T10:56:39;41.58;;;16.80;;
46158;SDS011;31888;44.512;26.104;2022-12-18T10:59:06;81.15;;;30.88;;
46158;SDS011;31888;44.512;26.104;2022-12-18T11:01:45;56.35;;;20.17;;
46158;SDS011;31888;44.512;26.104;2022-12-18T11:04:15;82.77;;;33.83;;
46158;SDS011;31888;44.512;26.104;2022-12-18T11:06:52;73.20;;;28.45;;
46158;SDS011;31888;44.512;26.104;2022-12-18T11:09:19;73.80;;;30.10;;
46158;SDS011;31888;44.512;26.104;2022-12-18T11:11:47;70.47;;;26.55;;
46158;SDS011;31888;44.512;26.104;2022-12-18T11:14:15;66.05;;;24.55;;
46158;SDS011;31888;44.512;26.104;2022-12-18T11:16:46;79.63;;;28.85;;
46158;SDS011;31888;44.512;26.104;2022-12-18T11:19:34;64.25;;;25.88;;
46158;SDS011;31888;44.512;26.104;2022-12-18T11:22:01;65.82;;;24.63;;
46158;SDS011;31888;44.512;26.104;2022-12-18T11:24:40;78.30;;;31.98;;
46158;SDS011;31888;44.512;26.104;2022-12-18T11:27:24;67.55;;;26.45;;
46158;SDS011;31888;44.512;26.104;2022-12-18T11:29:49;79.40;;;28.08;;
46158;SDS011;31888;44.512;26.104;2022-12-18T11:35:01;68.30;;;27.33;;
46158;SDS011;31888;44.512;26.104;2022-12-18T11:37:32;52.45;;;22.63;;
46158;SDS011;31888;44.512;26.104;2022-12-18T11:39:59;68.43;;;26.95;;
46158;SDS011;31888;44.512;26.104;2022-12-18T11:42:27;70.85;;;25.80;;
46158;SDS011;31888;44.512;26.104;2022-12-18T11:45:00;55.45;;;21.25;;
46158;SDS011;31888;44.512;26.104;2022-12-18T11:47:34;54.83;;;22.38;;
46158;SDS011;31888;44.512;26.104;2022-12-18T11:50:14;55.30;;;18.33;;
46158;SDS011;31888;44.512;26.104;2022-12-18T11:52:42;66.63;;;23.73;;
46158;SDS011;31888;44.512;26.104;2022-12-18T11:55:09;49.40;;;19.35;;
46158;SDS011;31888;44.512;26.104;2022-12-18T11:57:39;62.67;;;22.52;;
46158;SDS011;31888;44.512;26.104;2022-12-18T12:00:13;59.45;;;25.08;;
46158;SDS011;31888;44.512;26.104;2022-12-18T12:02:46;57.30;;;23.90;;
46158;SDS011;31888;44.512;26.104;2022-12-18T12:05:34;64.97;;;23.83;;
46158;SDS011;31888;44.512;26.104;2022-12-18T12:08:06;69.70;;;26.95;;
46158;SDS011;31888;44.512;26.104;2022-12-18T12:10:42;67.60;;;26.27;;
46158;SDS011;31888;44.512;26.104;2022-12-18T12:13:20;72.63;;;27.38;;
46158;SDS011;31888;44.512;26.104;2022-12-18T12:15:57;71.38;;;25.35;;
46158;SDS011;31888;44.512;26.104;2022-12-18T12:18:34;51.30;;;19.80;;
46158;SDS011;31888;44.512;26.104;2022-12-18T12:21:09;67.07;;;25.58;;
46158;SDS011;31888;44.512;26.104;2022-12-18T12:23:41;74.25;;;29.55;;
46158;SDS011;31888;44.512;26.104;2022-12-18T12:26:12;61.55;;;25.33;;
46158;SDS011;31888;44.512;26.104;2022-12-18T12:31:50;46.90;;;17.80;;
46158;SDS011;31888;44.512;26.104;2022-12-18T12:34:29;58.65;;;22.98;;
46158;SDS011;31888;44.512;26.104;2022-12-18T12:37:03;47.20;;;17.25;;
46158;SDS011;31888;44.512;26.104;2022-12-18T12:39:40;63.55;;;24.70;;
46158;SDS011;31888;44.512;26.104;2022-12-18T12:42:11;54.17;;;21.77;;
46158;SDS011;31888;44.512;26.104;2022-12-18T12:45:00;64.65;;;22.77;;
46158;SDS011;31888;44.512;26.104;2022-12-18T12:47:30;48.83;;;17.10;;
46158;SDS011;31888;44.512;26.104;2022-12-18T12:50:01;62.17;;;22.20;;
46158;SDS011;31888;44.512;26.104;2022-12-18T12:52:32;39.83;;;15.53;;
46158;SDS011;31888;44.512;26.104;2022-12-18T12:55:01;58.67;;;22.13;;
46158;SDS011;31888;44.512;26.104;2022-12-18T12:57:36;55.58;;;22.42;;
46158;SDS011;31888;44.512;26.104;2022-12-18T13:00:07;61.80;;;22.20;;
46158;SDS011;31888;44.512;26.104;2022-12-18T13:02:36;69.22;;;25.75;;
46158;SDS011;31888;44.512;26.104;2022-12-18T13:05:11;66.20;;;25.17;;
46158;SDS011;31888;44.512;26.104;2022-12-18T13:07:47;55.00;;;20.50;;
46158;SDS011;31888;44.512;26.104;2022-12-18T13:10:24;67.78;;;22.60;;
46158;SDS011;31888;44.512;26.104;2022-12-18T13:12:54;57.67;;;23.33;;
46158;SDS011;31888;44.512;26.104;2022-12-18T13:15:20;63.63;;;25.33;;
46158;SDS011;31888;44.512;26.104;2022-12-18T13:17:47;69.65;;;27.38;;
46158;SDS011;31888;44.512;26.104;2022-12-18T13:20:12;61.53;;;25.23;;
46158;SDS011;31888;44.512;26.104;2022-12-18T13:22:40;59.42;;;23.40;;
46158;SDS011;31888;44.512;26.104;2022-12-18T13:25:28;63.58;;;25.83;;
46158;SDS011;31888;44.512;26.104;2022-12-18T13:27:57;62.28;;;24.25;;
46158;SDS011;31888;44.512;26.104;2022-12-18T13:36:32;64.45;;;26.00;;
46158;SDS011;31888;44.512;26.104;2022-12-18T13:45:42;49.92;;;20.52;;
46158;SDS011;31888;44.512;26.104;2022-12-18T13:48:20;63.20;;;25.20;;
46158;SDS011;31888;44.512;26.104;2022-12-18T13:50:53;64.03;;;25.10;;
46158;SDS011;31888;44.512;26.104;2022-12-18T13:53:22;48.70;;;19.52;;
46158;SDS011;31888;44.512;26.104;2022-12-18T13:55:50;54.67;;;22.13;;
46158;SDS011;31888;44.512;26.104;2022-12-18T13:58:16;66.25;;;25.02;;
46158;SDS011;31888;44.512;26.104;2022-12-18T14:00:41;63.67;;;25.50;;
46158;SDS011;31888;44.512;26.104;2022-12-18T14:03:15;69.63;;;26.77;;
46158;SDS011;31888;44.512;26.104;2022-12-18T14:05:44;68.22;;;26.38;;
46158;SDS011;31888;44.512;26.104;2022-12-18T14:08:12;67.50;;;26.98;;
46158;SDS011;31888;44.512;26.104;2022-12-18T14:10:40;63.00;;;25.50;;
46158;SDS011;31888;44.512;26.104;2022-12-18T14:13:14;68.50;;;24.40;;
46158;SDS011;31888;44.512;26.104;2022-12-18T14:15:45;63.17;;;25.92;;
46158;SDS011;31888;44.512;26.104;2022-12-18T14:18:15;67.47;;;26.70;;
46158;SDS011;31888;44.512;26.104;2022-12-18T14:20:45;67.50;;;25.58;;
46158;SDS011;31888;44.512;26.104;2022-12-18T14:23:27;64.13;;;26.42;;
46158;SDS011;31888;44.512;26.104;2022-12-18T14:25:53;65.05;;;25.42;;
46158;SDS011;31888;44.512;26.104;2022-12-18T14:28:28;68.65;;;25.67;;
46158;SDS011;31888;44.512;26.104;2022-12-18T14:30:52;71.35;;;27.83;;
46158;SDS011;31888;44.512;26.104;2022-12-18T14:33:19;68.75;;;27.50;;
46158;SDS011;31888;44.512;26.104;2022-12-18T14:35:52;82.80;;;28.77;;
46158;SDS011;31888;44.512;26.104;2022-12-18T14:38:22;65.47;;;25.38;;
46158;SDS011;31888;44.512;26.104;2022-12-18T14:40:53;70.28;;;27.60;;